Time;durP1;ratioP1;P1;durP2;ratioP2;P2;SDS_P1;SDS_P2;PMS_P1;PMS_P2;Temp;Humidity;BMP_temperature;BMP_pressure;BME280_temperature;BME280_humidity;BME280_pressure;Samples;Min_cycle;Max_cycle;Signal;HPM_P1;HPM_P2
2021/06/06 00:01:13;;;;;;;10.52;6.70;;;;;;;;;;5012804;28;20554;-68
2021/06/06 00:03:41;;;;;;;10.57;6.70;;;;;;;;;;5012326;28;20037;-69
2021/06/06 00:06:09;;;;;;;10.77;6.47;;;;;;;;;;5011139;28;20034;-74
2021/06/06 00:08:36;;;;;;;8.32;6.43;;;;;;;;;;4995650;28;20025;-69
2021/06/06 00:11:05;;;;;;;8.07;7.03;;;;;;;;;;5011874;28;20069;-70
2021/06/06 00:13:31;;;;;;;9.10;6.82;;;;;;;;;;4995642;28;20039;-68
2021/06/06 00:15:58;;;;;;;13.48;7.43;;;;;;;;;;5012134;28;20029;-68
2021/06/06 00:18:24;;;;;;;10.07;7.35;;;;;;;;;;5011896;28;20428;-69
2021/06/06 00:20:50;;;;;;;10.10;6.80;;;;;;;;;;5029093;28;20087;-72
2021/06/06 00:23:16;;;;;;;10.32;6.78;;;;;;;;;;5088387;28;20094;-68
2021/06/06 00:25:42;;;;;;;10.13;7.40;;;;;;;;;;5092425;28;20087;-69
2021/06/06 00:28:08;;;;;;;9.70;7.13;;;;;;;;;;5094119;28;20044;-70
2021/06/06 00:30:35;;;;;;;8.05;6.32;;;;;;;;;;5094058;28;20110;-70
2021/06/06 00:33:02;;;;;;;10.48;6.38;;;;;;;;;;5094114;28;20028;-71
2021/06/06 00:35:28;;;;;;;7.20;6.07;;;;;;;;;;5093808;28;20367;-73
2021/06/06 00:37:54;;;;;;;11.27;6.30;;;;;;;;;;5086877;28;20124;-73
2021/06/06 00:40:25;;;;;;;9.05;5.65;;;;;;;;;;5093628;28;20016;-73
2021/06/06 00:42:51;;;;;;;8.88;6.60;;;;;;;;;;5083073;28;20048;-69
2021/06/06 00:45:19;;;;;;;7.07;6.13;;;;;;;;;;5061121;28;20044;-69
2021/06/06 00:47:46;;;;;;;9.05;6.60;;;;;;;;;;5073501;28;20103;-70
2021/06/06 00:50:14;;;;;;;10.48;8.25;;;;;;;;;;5073209;28;20495;-71
2021/06/06 00:52:41;;;;;;;9.60;7.38;;;;;;;;;;5073278;28;20028;-71
2021/06/06 00:55:09;;;;;;;11.02;7.80;;;;;;;;;;5073400;28;20024;-71
2021/06/06 00:57:36;;;;;;;13.10;6.95;;;;;;;;;;5073326;28;20039;-69
2021/06/06 01:00:05;;;;;;;11.25;7.70;;;;;;;;;;5073433;28;20108;-70
2021/06/06 01:02:31;;;;;;;10.10;7.97;;;;;;;;;;5065042;28;20025;-69
2021/06/06 01:04:57;;;;;;;13.93;8.82;;;;;;;;;;5078764;28;20478;-70
2021/06/06 01:07:23;;;;;;;7.45;5.88;;;;;;;;;;5092681;28;20036;-69
2021/06/06 01:09:49;;;;;;;9.60;6.45;;;;;;;;;;5093155;28;20125;-71
2021/06/06 01:12:23;;;;;;;7.55;6.55;;;;;;;;;;5092917;28;20130;-70
2021/06/06 01:15:01;;;;;;;9.00;6.40;;;;;;;;;;5093090;28;20489;-74
2021/06/06 01:17:42;;;;;;;8.73;6.57;;;;;;;;;;5083875;28;20025;-74
2021/06/06 01:20:11;;;;;;;7.43;6.55;;;;;;;;;;5075422;28;20024;-71
2021/06/06 01:22:52;;;;;;;10.13;7.00;;;;;;;;;;5072031;28;20024;-71
2021/06/06 01:25:22;;;;;;;9.98;6.55;;;;;;;;;;5071516;28;20029;-70
2021/06/06 01:27:54;;;;;;;8.07;6.18;;;;;;;;;;5072636;28;20051;-76
2021/06/06 01:30:25;;;;;;;10.30;7.18;;;;;;;;;;5071039;28;20039;-74
2021/06/06 01:32:56;;;;;;;11.00;6.88;;;;;;;;;;5072586;28;20025;-73
2021/06/06 01:35:28;;;;;;;9.63;6.57;;;;;;;;;;5072194;28;20054;-71
2021/06/06 01:38:04;;;;;;;11.55;6.53;;;;;;;;;;5072179;28;20154;-74
2021/06/06 01:40:32;;;;;;;9.15;6.38;;;435.70;1920.00;;;;;;5072072;28;20031;-75
2021/06/06 01:43:12;;;;;;;8.35;6.50;;;;;;;;;;5071945;28;20439;-73
2021/06/06 01:45:43;;;;;;;8.40;6.47;;;435.40;1945.60;;;;;;5071929;28;20068;-69
2021/06/06 01:48:11;;;;;;;;;;;435.20;2022.40;;;;;;5072676;28;20039;-69
2021/06/06 01:50:45;;;;;;;9.07;6.28;;;410.50;2022.40;;;;;;5072079;28;19904;-71
2021/06/06 01:53:13;;;;;;;15.75;7.05;;;410.50;2048.00;;;;;;5070586;28;20089;-73
2021/06/06 01:55:47;;;;;;;8.68;7.07;;;410.40;2048.00;;;;;;5071949;28;20027;-68
2021/06/06 01:58:14;;;;;;;8.50;6.88;;;410.50;2048.00;;;;;;5071993;28;20025;-69
2021/06/06 02:00:58;;;;;;;7.32;6.63;;;410.50;2048.00;;;;;;5060398;28;20032;-67
2021/06/06 02:03:24;;;;;;;12.50;8.20;;;410.40;2048.00;;;;;;5065552;28;20028;-68
2021/06/06 02:05:51;;;;;;;10.38;8.23;;;410.40;2073.60;;;;;;5055778;28;20104;-69
2021/06/06 02:08:19;;;;;;;13.88;10.13;;;410.40;2073.60;;;;;;5055551;28;20044;-69
2021/06/06 02:10:56;;;;;;;13.45;8.15;;;410.40;2073.60;;;;;;5050900;28;20046;-73
2021/06/06 02:13:33;;;;;;;9.40;8.35;;;410.50;2048.00;;;;;;5057385;28;20085;-71
2021/06/06 02:16:02;;;;;;;14.57;8.25;;;410.50;2048.00;;;;;;5070916;28;20096;-72
2021/06/06 02:18:29;;;;;;;9.95;7.97;;;410.30;2073.60;;;;;;5071839;28;20410;-67
2021/06/06 02:20:56;;;;;;;10.88;7.35;;;410.30;2073.60;;;;;;5071946;28;20071;-72
2021/06/06 02:23:28;;;;;;;8.57;7.03;;;410.40;2073.60;;;;;;5072052;28;20494;-67
2021/06/06 02:25:59;;;;;;;25.70;15.45;;;410.40;2073.60;;;;;;5064933;28;20040;-67
2021/06/06 02:28:50;;;;;;;14.57;10.18;;;410.40;2073.60;;;;;;5069776;28;20109;-67
2021/06/06 02:31:29;;;;;;;8.90;7.87;;;410.40;2073.60;;;;;;5065473;28;20032;-67
2021/06/06 02:34:13;;;;;;;11.00;7.93;;;410.50;2073.60;;;;;;5069656;28;20258;-67
2021/06/06 02:36:46;;;;;;;10.98;7.68;;;410.40;2073.60;;;;;;5072163;28;20031;-67
2021/06/06 02:39:21;;;;;;;8.88;7.55;;;410.50;2073.60;;;;;;5072270;28;20020;-68
2021/06/06 02:41:57;;;;;;;10.25;7.20;;;435.20;2048.00;;;;;;5072037;28;20076;-68
2021/06/06 02:44:36;;;;;;;7.55;6.85;;;435.40;1996.80;;;;;;5072269;28;20056;-67
2021/06/06 02:47:03;;;;;;;9.52;7.57;;;435.40;2022.40;;;;;;5071964;28;20066;-68
2021/06/06 02:49:35;;;;;;;8.48;7.35;;;435.40;2022.40;;;;;;5072052;28;20024;-67
2021/06/06 02:52:04;;;;;;;;;;;435.40;1996.80;;;;;;5072631;28;20025;-67
2021/06/06 02:54:37;;;;;;;13.15;8.07;;;435.40;1996.80;;;;;;5072148;28;19905;-67
2021/06/06 02:57:07;;;;;;;8.20;7.13;;;435.50;1996.80;;;;;;5071832;28;20032;-67
2021/06/06 03:00:05;;;;;;;10.90;7.25;;;435.60;1996.80;;;;;;5071977;28;20020;-67
2021/06/06 03:02:38;;;;;;;10.07;7.22;;;435.60;1996.80;;;;;;5071912;28;20013;-67
2021/06/06 03:05:05;;;;;;;8.45;7.57;;;435.80;1971.20;;;;;;5079191;28;20047;-67
2021/06/06 03:07:46;;;;;;;10.68;8.60;;;435.90;1945.60;;;;;;5092328;28;20093;-67
2021/06/06 03:10:13;;;;;;;11.37;7.20;;;435.90;1971.20;;;;;;5092358;28;20023;-66
2021/06/06 03:12:39;;;;;;;8.80;7.90;;;436.10;1945.60;;;;;;5092126;28;20513;-66
2021/06/06 03:15:08;;;;;;;11.95;8.18;;;461.00;1920.00;;;;;;5092303;28;20103;-68
2021/06/06 03:17:41;;;;;;;12.48;8.40;;;460.90;1920.00;;;;;;5092339;28;20016;-67
2021/06/06 03:20:22;;;;;;;10.85;8.15;;;436.10;1945.60;;;;;;5092112;28;20493;-66
2021/06/06 03:22:49;;;;;;;11.75;7.50;;;435.80;1996.80;;;;;;5092233;28;20024;-66
2021/06/06 03:25:39;;;;;;;9.43;8.15;;;435.70;2022.40;;;;;;5092010;28;20474;-67
2021/06/06 03:28:07;;;;;;;11.15;7.60;;;435.60;2022.40;;;;;;5079616;28;20113;-68
2021/06/06 03:30:44;;;;;;;10.18;8.00;;;435.80;1996.80;;;;;;5095799;28;20026;-71
2021/06/06 03:33:31;;;;;;;10.98;8.68;;;436.00;1971.20;;;;;;5095616;28;20030;-70
2021/06/06 03:35:57;;;;;;;10.63;8.40;;;460.80;1971.20;;;;;;5095729;28;20470;-76
2021/06/06 03:38:23;;;;;;;9.73;8.73;;;460.80;1945.60;;;;;;5095628;28;20031;-68
2021/06/06 03:40:50;;;;;;;9.18;7.82;;;435.90;1996.80;;;;;;5095531;28;20012;-68
2021/06/06 03:43:18;;;;;;;9.35;7.75;;;435.60;2048.00;;;;;;5095203;28;20490;-75
2021/06/06 03:45:44;;;;;;;9.10;8.10;;;435.60;2048.00;;;;;;5095448;28;20032;-76
2021/06/06 03:48:10;;;;;;;9.95;8.52;;;435.60;2048.00;;;;;;5095795;28;20016;-81
2021/06/06 03:50:38;;;;;;;8.40;7.60;;;435.60;2048.00;;;;;;5095682;28;20016;-75
2021/06/06 03:53:06;;;;;;;8.32;7.53;;;435.90;2022.40;;;;;;5095532;28;20020;-68
2021/06/06 03:55:32;;;;;;;10.05;8.23;;;435.90;2022.40;;;;;;5095044;28;20024;-74
2021/06/06 03:57:58;;;;;;;8.90;8.00;;;436.00;2022.40;;;;;;5095446;28;20355;-72
2021/06/06 04:00:31;;;;;;;9.00;8.10;;;435.80;2048.00;;;;;;5095377;28;20042;-74
2021/06/06 04:02:57;;;;;;;10.13;8.02;;;435.70;2048.00;;;;;;5095144;28;20031;-71
2021/06/06 04:05:23;;;;;;;11.38;8.27;;;435.80;2073.60;;;;;;5094961;28;20025;-74
2021/06/06 04:07:48;;;;;;;9.00;7.50;;;435.90;2048.00;;;;;;5095027;28;20032;-68
2021/06/06 04:10:15;;;;;;;8.60;7.57;;;436.00;2022.40;;;;;;5094993;28;20023;-69
2021/06/06 04:12:40;;;;;;;10.63;7.95;;;436.10;2022.40;;;;;;5094873;28;20039;-68
2021/06/06 04:15:07;;;;;;;11.02;9.23;;;;;;;;;;5094939;28;20024;-75
2021/06/06 04:17:33;;;;;;;14.45;10.75;;;;;;;;;;5094880;28;20024;-68
2021/06/06 04:19:59;;;;;;;10.25;9.25;;;;;;;;;;5094969;28;20047;-73
2021/06/06 04:22:25;;;;;;;9.95;8.93;;;;;;;;;;5093499;28;20509;-71
2021/06/06 04:24:52;;;;;;;10.55;7.85;;;;;;;;;;5094695;28;20032;-68
2021/06/06 04:27:18;;;;;;;9.32;8.20;;;;;;;;;;5094522;28;20059;-69
2021/06/06 04:29:45;;;;;;;8.75;7.95;;;;;;;;;;5094728;28;20059;-69
2021/06/06 04:32:17;;;;;;;8.95;7.90;;;;;;;;;;5094728;28;20366;-68
2021/06/06 04:34:44;;;;;;;9.38;8.18;;;;;;;;;;5094716;28;20036;-72
2021/06/06 04:37:11;;;;;;;10.43;8.75;;;;;;;;;;5094455;28;20019;-67
2021/06/06 04:39:37;;;;;;;11.18;7.78;;;;;;;;;;5093299;28;20024;-76
2021/06/06 04:42:05;;;;;;;12.20;8.70;;;;;;;;;;5094136;28;20043;-68
2021/06/06 04:44:31;;;;;;;9.48;8.43;;;;;;;;;;5094518;28;20086;-68
2021/06/06 04:46:57;;;;;;;8.77;7.80;;;;;;;;;;5093177;28;20040;-76
2021/06/06 04:49:23;;;;;;;9.50;8.00;;;461.60;1971.20;;;;;;5094897;28;20024;-69
2021/06/06 04:51:50;;;;;;;9.45;8.32;;;;;;;;;;5094433;28;20038;-67
2021/06/06 04:54:16;;;;;;;10.25;8.77;;;486.70;1920.00;;;;;;5094180;28;20028;-70
2021/06/06 04:56:41;;;;;;;11.38;7.90;;;486.70;1920.00;;;;;;5094178;28;20027;-67
2021/06/06 04:59:08;;;;;;;9.70;8.35;;;;;;;;;;5093901;28;20024;-69
2021/06/06 05:01:34;;;;;;;11.82;7.85;;;;;;;;;;5094129;28;20024;-71
2021/06/06 05:04:00;;;;;;;9.68;7.90;;;;;;;;;;5093818;28;20115;-67
2021/06/06 05:06:26;;;;;;;8.82;7.72;;;;;;;;;;5093801;28;20032;-70
2021/06/06 05:08:52;;;;;;;11.23;8.65;;;;;;;;;;5093919;28;20483;-68
2021/06/06 05:11:18;;;;;;;8.77;7.88;;;;;;;;;;5093534;28;20097;-67
2021/06/06 05:13:44;;;;;;;8.98;8.07;;;;;;;;;;5093802;28;20516;-68
2021/06/06 05:16:10;;;;;;;9.63;7.53;;;;;;;;;;5093722;28;20028;-70
2021/06/06 05:18:36;;;;;;;14.93;8.07;;;;;;;;;;5093756;28;20173;-69
2021/06/06 05:21:03;;;;;;;8.07;7.38;;;;;;;;;;5093724;28;20095;-73
2021/06/06 05:23:30;;;;;;;9.18;8.00;;;;;;;;;;5093495;28;20020;-69
2021/06/06 05:25:56;;;;;;;8.63;7.70;;;;;;;;;;5092168;28;20028;-69
2021/06/06 05:28:24;;;;;;;8.68;7.88;;;;;;;;;;5093339;28;20099;-72
2021/06/06 05:30:50;;;;;;;8.68;7.65;;;;;;;;;;5093606;28;20073;-72
2021/06/06 05:33:16;;;;;;;9.23;8.25;;;;;;;;;;5093394;28;20027;-72
2021/06/06 05:35:42;;;;;;;7.82;7.18;;;;;;;;;;5093495;28;20081;-69
2021/06/06 05:38:09;;;;;;;16.45;8.38;;;;;;;;;;5092080;28;20043;-70
2021/06/06 05:40:38;;;;;;;9.38;7.93;;;;;;;;;;5093118;28;20374;-69
2021/06/06 05:43:04;;;;;;;8.52;7.30;;;563.30;1689.60;;;;;;5093009;28;20135;-72
2021/06/06 05:45:31;;;;;;;10.10;8.35;;;563.40;1715.20;;;;;;5092974;28;20028;-72
2021/06/06 05:47:57;;;;;;;10.82;8.85;;;563.60;1715.20;;;;;;5093159;28;20028;-68
2021/06/06 05:50:26;;;;;;;10.23;9.02;;;563.60;1715.20;;;;;;5092756;28;20036;-68
2021/06/06 05:52:52;;;;;;;9.10;8.20;;;563.60;1740.80;;;;;;5093148;28;20064;-72
2021/06/06 05:55:20;;;;;;;11.90;8.40;;;563.50;1740.80;;;;;;5092934;28;20107;-72
2021/06/06 05:57:46;;;;;;;12.68;8.48;;;563.40;1766.40;;;;;;5092961;28;20062;-67
2021/06/06 06:00:16;;;;;;;8.88;8.00;;;563.30;1792.00;;;;;;5092706;28;20070;-69
2021/06/06 06:02:43;;;;;;;9.75;8.18;;;563.20;1868.80;;;;;;5092870;28;20085;-71
2021/06/06 06:05:09;;;;;;;9.30;7.78;;;538.50;1843.20;;;;;;5092937;28;20362;-75
2021/06/06 06:07:35;;;;;;;9.63;8.43;;;538.50;1868.80;;;;;;5092790;28;20035;-69
2021/06/06 06:10:02;;;;;;;8.60;7.55;;;538.50;1920.00;;;;;;5092753;28;20016;-73
2021/06/06 06:12:28;;;;;;;8.43;7.43;;;538.50;1945.60;;;;;;5092728;28;20036;-68
2021/06/06 06:14:54;;;;;;;8.35;7.18;;;563.20;1996.80;;;;;;5092637;28;20099;-70
2021/06/06 06:17:20;;;;;;;8.68;7.75;;;563.20;2022.40;;;;;;5092754;28;20051;-69
2021/06/06 06:19:46;;;;;;;11.07;7.28;;;538.50;2073.60;;;;;;5092951;28;20466;-69
2021/06/06 06:22:12;;;;;;;11.35;7.85;;;538.50;2124.80;;;;;;5092702;28;20020;-70
2021/06/06 06:24:37;;;;;;;11.10;9.10;;;538.50;2099.20;;;;;;5066679;28;20463;-69
2021/06/06 06:27:03;;;;;;;9.38;8.38;;;563.20;2252.80;;;;;;5074488;28;20071;-69
2021/06/06 06:29:29;;;;;;;10.00;8.63;;;563.30;2252.80;;;;;;5072310;28;20025;-72
2021/06/06 06:31:55;;;;;;;9.10;8.13;;;563.20;2304.00;;;;;;5072518;28;20028;-72
2021/06/06 06:34:21;;;;;;;10.25;8.68;;;538.50;2278.40;;;;;;5072246;28;20016;-70
2021/06/06 06:36:47;;;;;;;9.27;8.38;;;563.20;2278.40;;;;;;5070997;28;20119;-69
2021/06/06 06:39:14;;;;;;;10.35;9.25;;;563.40;2124.80;;;;;;5072216;28;20111;-69
2021/06/06 06:41:40;;;;;;;11.32;8.65;;;563.40;2278.40;;;;;;5071884;28;20028;-69
2021/06/06 06:44:06;;;;;;;9.93;8.93;;;;;;;;;;5072102;28;20025;-68
2021/06/06 06:46:33;;;;;;;10.48;9.45;;;;;;;;;;5072097;28;20487;-68
2021/06/06 06:48:59;;;;;;;9.88;8.85;;;;;;;;;;5070460;28;20024;-68
2021/06/06 06:51:26;;;;;;;14.05;9.55;;;;;;;;;;5072309;28;20394;-72
2021/06/06 06:53:54;;;;;;;9.13;8.23;;;;;;;;;;5070699;28;20020;-69
2021/06/06 06:56:23;;;;;;;12.77;7.80;;;;;;;;;;5072063;28;20032;-68
2021/06/06 06:58:50;;;;;;;8.90;8.07;;;;;;;;;;5071863;28;20023;-69
2021/06/06 07:01:16;;;;;;;8.85;7.45;;;;;;;;;;5072259;28;20044;-69
2021/06/06 07:03:42;;;;;;;13.90;10.02;;;;;;;;;;5073546;28;20490;-70
2021/06/06 07:06:09;;;;;;;10.60;9.50;;;;;;;;;;5096182;28;20085;-69
2021/06/06 07:08:38;;;;;;;10.68;8.80;;;;;;;;;;5096224;28;20103;-69
2021/06/06 07:11:06;;;;;;;10.15;8.80;;;;;;;;;;5095797;28;20059;-73
2021/06/06 07:13:33;;;;;;;9.63;8.52;;;;;;;;;;5096062;28;20024;-72
2021/06/06 07:16:00;;;;;;;11.05;8.35;;;;;;;;;;5082940;28;20024;-70
2021/06/06 07:18:27;;;;;;;13.18;8.27;;;;;;;;;;5074522;28;20481;-68
2021/06/06 07:20:55;;;;;;;9.70;8.80;;;;;;;;;;5087681;28;20032;-69
2021/06/06 07:23:21;;;;;;;10.25;9.25;;;;;;;;;;5095991;28;20043;-68
2021/06/06 07:25:48;;;;;;;11.02;8.95;;;;;;;;;;5096012;28;20031;-67
2021/06/06 07:28:16;;;;;;;12.82;9.95;;;;;;;;;;5095705;28;20105;-71
2021/06/06 07:30:47;;;;;;;9.88;8.80;;;;;;;;;;5095713;28;20028;-68
2021/06/06 07:33:14;;;;;;;16.10;11.32;;;;;;;;;;5095771;28;20035;-70
2021/06/06 07:35:40;;;;;;;12.57;10.23;;;;;;;;;;5094635;28;20031;-69
2021/06/06 07:38:07;;;;;;;12.82;10.18;;;;;;;;;;5095790;28;20020;-73
2021/06/06 07:40:35;;;;;;;10.73;9.52;;;;;;;;;;5095605;28;20058;-78
2021/06/06 07:43:02;;;;;;;11.75;10.55;;;;;;;;;;5095492;28;20498;-68
2021/06/06 07:45:29;;;;;;;10.30;9.27;;;;;;;;;;5095451;28;20039;-69
2021/06/06 07:47:55;;;;;;;13.85;9.68;;;;;;;;;;5095580;28;20098;-73
2021/06/06 07:50:22;;;;;;;12.10;8.75;;;;;;;;;;5095538;28;20028;-70
2021/06/06 07:52:48;;;;;;;12.80;9.95;;;;;;;;;;5095282;28;20027;-79
2021/06/06 07:55:16;;;;;;;9.75;7.72;;;;;;;;;;5095176;28;20077;-69
2021/06/06 07:57:43;;;;;;;9.32;8.32;;;;;;;;;;5095308;28;20099;-67
2021/06/06 08:00:10;;;;;;;9.65;8.75;;;;;;;;;;5095178;28;20020;-71
2021/06/06 08:02:36;;;;;;;9.02;8.23;;;;;;;;;;5095005;28;20474;-71
2021/06/06 08:05:03;;;;;;;10.70;8.18;;;;;;;;;;5095059;28;20028;-69
2021/06/06 08:07:30;;;;;;;10.40;7.53;;;;;;;;;;5095058;28;20093;-72
2021/06/06 08:09:56;;;;;;;11.20;7.70;;;;;;;;;;5095075;28;20019;-72
2021/06/06 08:12:26;;;;;;;8.90;7.93;;;;;;;;;;5094747;28;20045;-72
2021/06/06 08:14:52;;;;;;;10.75;8.23;;;;;;;;;;5094621;28;20031;-67
2021/06/06 08:17:18;;;;;;;9.45;8.45;;;;;;;;;;5094841;28;20020;-69
2021/06/06 08:19:44;;;;;;;9.13;8.23;;;;;;;;;;5094659;28;20028;-70
2021/06/06 08:22:10;;;;;;;8.80;7.95;;;;;;;;;;5094612;28;20032;-71
2021/06/06 08:24:37;;;;;;;10.70;9.00;;;;;;;;;;5094691;28;20024;-71
2021/06/06 08:27:03;;;;;;;10.18;8.88;;;;;;;;;;5094578;28;20032;-72
2021/06/06 08:29:29;;;;;;;11.23;10.02;;;;;;;;;;5094290;28;20032;-67
2021/06/06 08:31:55;;;;;;;9.43;8.50;;;;;;;;;;5094458;28;20146;-72
2021/06/06 08:34:21;;;;;;;10.15;8.13;;;;;;;;;;5094612;28;20020;-71
2021/06/06 08:36:48;;;;;;;7.90;7.10;;;;;;;;;;5094474;28;20031;-70
2021/06/06 08:39:16;;;;;;;12.02;8.43;;;;;;;;;;5094398;28;20019;-72
2021/06/06 08:41:45;;;;;;;8.05;7.13;;;;;;;;;;5075995;28;20048;-68
2021/06/06 08:44:29;;;;;;;11.48;9.20;;;;;;;;;;5080254;28;20096;-67
2021/06/06 08:47:00;;;;;;;9.45;7.97;;;;;;;;;;5069747;28;20544;-72
2021/06/06 08:49:28;;;;;;;9.27;8.32;;;;;;;;;;5081681;28;20016;-70
2021/06/06 08:52:13;;;;;;;9.80;8.70;;;;;;;;;;5074152;28;20645;-69
2021/06/06 08:54:42;;;;;;;13.95;8.32;;;;;;;;;;5073825;28;20490;-68
2021/06/06 08:57:18;;;;;;;9.30;7.60;;;;;;;;;;5073796;28;20478;-68
2021/06/06 08:59:48;;;;;;;11.55;7.78;;;;;;;;;;5073234;28;20051;-72
2021/06/06 09:02:21;;;;;;;8.33;7.53;;;;;;;;;;5073539;28;20036;-74
2021/06/06 09:04:48;;;;;;;12.68;8.32;;;;;;;;;;5078694;28;20020;-70
2021/06/06 09:07:14;;;;;;;8.55;7.18;;;;;;;;;;5093894;28;20481;-70
2021/06/06 09:09:43;;;;;;;8.68;7.70;;;;;;;;;;5093913;28;20021;-70
2021/06/06 09:12:11;;;;;;;9.77;7.97;;;;;;;;;;5093692;28;20032;-71
2021/06/06 09:14:41;;;;;;;10.32;8.32;;;;;;;;;;5093614;28;20056;-78
2021/06/06 09:17:14;;;;;;;11.65;8.48;;;;;;;;;;5093781;28;20044;-76
2021/06/06 09:19:43;;;;;;;13.75;8.70;;;;;;;;;;5093741;28;20420;-76
2021/06/06 09:22:10;;;;;;;12.60;8.57;;;;;;;;;;5085611;28;20103;-70
2021/06/06 09:24:39;;;;;;;11.88;8.73;;;;;;;;;;5087445;28;20024;-68
2021/06/06 09:27:09;;;;;;;11.45;8.65;;;;;;;;;;5076172;28;20033;-71
2021/06/06 09:29:35;;;;;;;10.57;8.00;;;;;;;;;;5052936;28;20025;-77
2021/06/06 09:32:10;;;;;;;12.57;8.82;;;;;;;;;;5052942;28;20083;-77
2021/06/06 09:34:36;;;;;;;11.05;8.40;;;;;;;;;;5064392;28;20020;-75
2021/06/06 09:37:05;;;;;;;10.55;9.27;;;;;;;;;;5071009;28;20376;-78
2021/06/06 09:39:34;;;;;;;13.40;11.82;;;;;;;;;;5072495;28;20020;-79
2021/06/06 09:42:00;;;;;;;13.63;10.73;;;;;;;;;;5072140;28;20525;-79
2021/06/06 09:44:29;;;;;;;15.48;13.57;;;;;;;;;;5072238;28;20039;-78
2021/06/06 09:46:55;;;;;;;25.38;17.98;;;;;;;;;;5072127;28;20040;-76
2021/06/06 09:49:25;;;;;;;100.15;75.03;;;;;;;;;;5071970;28;20099;-76
2021/06/06 09:51:51;;;;;;;51.03;39.67;;;;;;;;;;5072077;28;20036;-78
2021/06/06 09:54:25;;;;;;;54.40;41.35;;;;;;;;;;5072015;28;20021;-72
2021/06/06 09:56:52;;;;;;;73.57;54.80;;;;;;;;;;5070832;28;20033;-77
2021/06/06 09:59:24;;;;;;;61.78;47.08;;;;;;;;;;5071747;28;20078;-77
2021/06/06 10:01:57;;;;;;;63.03;48.17;;;;;;;;;;5071856;28;20025;-74
2021/06/06 10:04:28;;;;;;;52.15;36.67;;;;;;;;;;5072765;28;20024;-77
2021/06/06 10:07:06;;;;;;;47.00;35.33;;;;;;;;;;5089704;28;20497;-73
2021/06/06 10:09:32;;;;;;;50.92;38.13;;;;;;;;;;5078955;28;20115;-75
2021/06/06 10:12:06;;;;;;;91.32;74.15;;;;;;;;;;5092195;28;20020;-78
2021/06/06 10:14:32;;;;;;;50.97;40.55;;;;;;;;;;5091967;28;20016;-77
2021/06/06 10:17:00;;;;;;;94.43;79.20;;;;;;;;;;5092428;28;20028;-75
2021/06/06 10:19:33;;;;;;;11.63;8.50;;;;;;;;;;5091857;28;20020;-78
2021/06/06 10:22:02;;;;;;;122.95;103.40;;;;;;;;;;5092068;28;20123;-76
2021/06/06 10:24:41;;;;;;;103.63;87.05;;;;;;;;;;5092365;28;20114;-75
2021/06/06 10:27:10;;;;;;;107.70;84.22;;;;;;;;;;5065866;28;20039;-77
2021/06/06 10:29:39;;;;;;;64.57;52.17;;;;;;;;;;5077028;28;20025;-77
2021/06/06 10:32:24;;;;;;;94.88;76.75;;;;;;;;;;5071619;28;20425;-72
2021/06/06 10:34:52;;;;;;;19.02;16.80;;;;;;;;;;5071294;28;20054;-76
2021/06/06 10:37:18;;;;;;;45.08;35.95;;;;;;;;;;5072253;28;20039;-67
2021/06/06 10:39:53;;;;;;;11.38;9.25;;;;;;;;;;5074453;28;20360;-74
2021/06/06 10:42:23;;;;;;;32.03;24.95;;;;;;;;;;5075609;28;20491;-74
2021/06/06 10:45:19;;;;;;;24.63;21.93;;;;;;;;;;5075640;28;20021;-71
2021/06/06 10:48:00;;;;;;;62.33;51.10;;;;;;;;;;4992199;28;20047;-75
2021/06/06 10:50:32;;;;;;;37.45;32.53;;;;;;;;;;4987869;28;20038;-67
2021/06/06 10:53:16;;;;;;;26.10;21.95;;;;;;;;;;4983888;28;20038;-71
2021/06/06 10:56:05;;;;;;;41.83;33.33;;;;;;;;;;4990292;28;20117;-75
2021/06/06 10:58:34;;;;;;;52.97;45.10;;;;;;;;;;4981247;28;20531;-70
2021/06/06 11:01:18;;;;;;;13.65;9.77;;;;;;;;;;4992135;28;20045;-73
2021/06/06 11:03:46;;;;;;;28.02;23.70;;;;;;;;;;4989633;28;20030;-68
2021/06/06 11:06:24;;;;;;;32.72;26.48;;;;;;;;;;4960529;28;20438;-75
2021/06/06 11:08:50;;;;;;;35.38;29.33;;;;;;;;;;4974470;28;20031;-67
2021/06/06 11:11:22;;;;;;;10.05;7.57;;;;;;;;;;4973362;28;20371;-75
2021/06/06 11:13:57;;;;;;;12.50;8.98;;;;;;;;;;4973347;28;20410;-79
2021/06/06 11:16:29;;;;;;;8.85;7.95;;;;;;;;;;4972631;28;20116;-77
2021/06/06 11:18:58;;;;;;;29.48;22.77;;;;;;;;;;4968911;28;20023;-77
2021/06/06 11:21:42;;;;;;;24.85;22.25;;;;;;;;;;4973919;28;20129;-76
2021/06/06 11:24:24;;;;;;;26.58;20.85;;;;;;;;;;5015821;28;20029;-73
2021/06/06 11:27:06;;;;;;;13.15;8.88;;;;;;;;;;5093128;28;20028;-76
2021/06/06 11:29:53;;;;;;;16.85;13.35;;;;;;;;;;5095214;28;20024;-70
2021/06/06 11:32:24;;;;;;;11.90;8.82;;;;;;;;;;5076488;28;20020;-76
2021/06/06 11:35:06;;;;;;;11.52;10.32;;;;;;;;;;5083698;28;20020;-77
2021/06/06 11:37:40;;;;;;;21.77;8.32;;;;;;;;;;5095415;28;20533;-77
2021/06/06 11:40:32;;;;;;;14.48;7.57;;;742.90;1203.20;;;;;;5093524;28;20533;-80
2021/06/06 11:43:21;;;;;;;18.30;12.75;;;;;;;;;;5095731;28;20109;-75
2021/06/06 11:45:50;;;;;;;13.50;10.75;;;;;;;;;;5095075;28;20020;-79
2021/06/06 11:48:44;;;;;;;14.02;10.80;;;717.10;1305.60;;;;;;5089353;28;20517;-78
2021/06/06 11:51:22;;;;;;;15.00;11.88;;;716.90;1356.80;;;;;;5072422;28;20016;-77
2021/06/06 11:53:49;;;;;;;19.92;9.80;;;692.10;1433.60;;;;;;5094767;28;20103;-79
2021/06/06 11:56:47;;;;;;;16.67;10.27;;;691.50;1484.80;;;;;;5094667;28;20110;-78
2021/06/06 11:59:40;;;;;;;13.52;9.93;;;691.30;1484.80;;;;;;5012399;28;20176;-77
2021/06/06 12:02:11;;;;;;;15.32;9.95;;;;;;;;;;5007964;28;20077;-75
2021/06/06 12:04:38;;;;;;;18.48;13.02;;;;;;;;;;4992857;28;20117;-75
2021/06/06 12:07:30;;;;;;;13.18;11.43;;;;;;;;;;4992930;28;20042;-78
2021/06/06 12:09:59;;;;;;;11.38;10.18;;;;;;;;;;4995452;28;20447;-78
2021/06/06 12:12:27;;;;;;;16.65;11.70;;;;;;;;;;4996142;28;20077;-75
2021/06/06 12:15:07;;;;;;;10.77;9.43;;;;;;;;;;5012108;28;20132;-77
2021/06/06 12:17:34;;;;;;;12.25;10.60;;;;;;;;;;5012197;28;20026;-77
2021/06/06 12:20:01;;;;;;;11.82;10.43;;;;;;;;;;5012358;28;20061;-78
2021/06/06 12:22:32;;;;;;;10.82;9.65;;;;;;;;;;5007336;28;20035;-77
2021/06/06 12:25:06;;;;;;;50.92;28.90;;;;;;;;;;5008162;28;20053;-73
2021/06/06 12:27:33;;;;;;;16.35;14.18;;;;;;;;;;5011823;28;20519;-78
2021/06/06 12:30:04;;;;;;;18.85;14.98;;;;;;;;;;5012736;28;20022;-77
2021/06/06 12:32:36;;;;;;;13.13;11.70;;;;;;;;;;5012029;28;20038;-75
2021/06/06 12:35:05;;;;;;;19.60;17.50;;;;;;;;;;5049215;28;20039;-77
2021/06/06 12:37:32;;;;;;;15.57;13.98;;;;;;;;;;5093986;28;20032;-79
2021/06/06 12:40:03;;;;;;;14.48;12.98;;;614.70;1868.80;;;;;;5093953;28;20020;-78
2021/06/06 12:42:29;;;;;;;;;;;614.60;1920.00;;;;;;5057753;28;20033;-78
2021/06/06 12:44:58;;;;;;;16.58;14.10;;;;;;;;;;5053902;28;19919;-74
2021/06/06 12:47:37;;;;;;;15.13;13.30;;;;;;;;;;5055805;28;20025;-73
2021/06/06 12:50:11;;;;;;;15.88;13.75;;;;;;;;;;5055753;28;20096;-75
2021/06/06 12:52:39;;;;;;;18.08;13.73;;;;;;;;;;5055151;28;20044;-76
2021/06/06 12:55:24;;;;;;;17.42;14.75;;;;;;;;;;5054751;28;20025;-76
2021/06/06 12:58:11;;;;;;;14.05;12.73;;;614.70;1920.00;;;;;;5054009;28;20013;-72
2021/06/06 13:00:52;;;;;;;14.40;13.00;;;614.60;1945.60;;;;;;5055684;28;20021;-78
2021/06/06 13:03:31;;;;;;;16.80;13.23;;;;;;;;;;5073193;28;20024;-76
2021/06/06 13:06:11;;;;;;;16.58;13.00;;;614.40;2022.40;;;;;;5073793;28;20032;-79
2021/06/06 13:08:38;;;;;;;13.75;12.35;;;614.40;1971.20;;;;;;5066571;28;20046;-77
2021/06/06 13:11:09;;;;;;;14.43;12.18;;;589.50;1996.80;;;;;;5064044;28;20087;-79
2021/06/06 13:13:37;;;;;;;15.45;13.13;;;589.40;2099.20;;;;;;5063598;28;20056;-75
2021/06/06 13:16:14;;;;;;;15.40;13.88;;;;;;;;;;5063097;28;20070;-73
2021/06/06 13:18:40;;;;;;;21.73;18.92;;;;;;;;;;5055359;28;20048;-76
2021/06/06 13:21:12;;;;;;;20.38;17.88;;;;;;;;;;5066409;28;20035;-73
2021/06/06 13:23:41;;;;;;;36.42;27.30;;;;;;;;;;5070572;28;20051;-72
2021/06/06 13:26:09;;;;;;;29.98;23.23;;;;;;;;;;5073030;28;20025;-73
2021/06/06 13:28:40;;;;;;;27.55;19.30;;;;;;;;;;5065782;28;20021;-74
2021/06/06 13:31:09;;;;;;;22.88;18.00;;;;;;;;;;5055704;28;20025;-73
2021/06/06 13:33:36;;;;;;;21.40;16.45;;;;;;;;;;5053295;28;20024;-70
2021/06/06 13:36:03;;;;;;;18.55;14.88;;;;;;;;;;5053765;28;20058;-71
2021/06/06 13:38:30;;;;;;;19.90;15.32;;;;;;;;;;5057283;28;20024;-72
2021/06/06 13:40:59;;;;;;;20.30;15.50;;;;;;;;;;5057599;28;20032;-70
2021/06/06 13:43:25;;;;;;;17.60;15.45;;;;;;;;;;5055773;28;20057;-72
2021/06/06 13:45:52;;;;;;;26.40;20.33;;;563.60;2432.00;;;;;;5072195;28;20373;-75
2021/06/06 13:48:20;;;;;;;16.85;14.65;;;563.60;2432.00;;;;;;5072313;28;20064;-68
2021/06/06 13:50:46;;;;;;;32.78;25.98;;;563.60;2406.40;;;;;;5070748;28;20023;-75
2021/06/06 13:53:17;;;;;;;25.20;22.42;;;563.30;2432.00;;;;;;5072316;28;20024;-73
2021/06/06 13:55:43;;;;;;;35.70;26.52;;;563.40;2432.00;;;;;;5072182;28;20387;-74